createdAt,value
2018-01-04T00:00:02.612Z,0
2018-01-04T00:01:12.593Z,0
2018-01-04T00:02:22.307Z,0
2018-01-04T00:03:32.029Z,0
2018-01-04T00:04:41.756Z,0
2018-01-04T00:05:51.712Z,0
2018-01-04T00:07:01.435Z,0
2018-01-04T00:08:11.431Z,0
2018-01-04T00:09:21.413Z,0
2018-01-04T00:11:03.216Z,0
2018-01-04T00:12:13.184Z,0
2018-01-04T00:13:22.897Z,0
2018-01-04T00:15:04.784Z,0
2018-01-04T00:16:14.765Z,0
2018-01-04T00:17:24.722Z,0
2018-01-04T00:18:34.709Z,0
2018-01-04T00:19:44.686Z,0
2018-01-04T00:20:54.653Z,0
2018-01-04T00:22:04.654Z,0
2018-01-04T00:23:14.638Z,0
2018-01-04T00:24:24.349Z,0
2018-01-04T00:25:34.067Z,0
2018-01-04T00:27:15.879Z,0
2018-01-04T00:28:57.704Z,0
2018-01-04T00:30:17.951Z,0
2018-01-04T00:31:27.997Z,0
2018-01-04T00:32:37.990Z,0
2018-01-04T00:33:47.956Z,0
2018-01-04T00:34:57.989Z,0
2018-01-04T00:36:07.953Z,0
2018-01-04T00:39:09.454Z,0
2018-01-04T00:40:22.241Z,0
2018-01-04T00:42:04.051Z,0
2018-01-04T00:45:30.689Z,0
2018-01-04T00:47:44.053Z,0
2018-01-04T00:49:04.016Z,0
2018-01-04T00:50:14.001Z,0
2018-01-04T00:51:23.973Z,0
2018-01-04T00:52:33.928Z,0
2018-01-04T00:53:43.887Z,0
2018-01-04T00:54:53.860Z,0
2018-01-04T00:56:03.815Z,0
2018-01-04T00:57:13.775Z,0
2018-01-04T00:58:23.500Z,0
2018-01-04T00:59:33.232Z,0
2018-01-04T01:00:42.968Z,0
2018-01-04T01:01:52.680Z,0
2018-01-04T01:03:02.395Z,0
2018-01-04T01:04:12.109Z,0
2018-01-04T01:05:21.834Z,0
2018-01-04T01:06:31.814Z,0
2018-01-04T01:07:41.781Z,0
2018-01-04T01:08:51.738Z,0
2018-01-04T01:10:01.710Z,0
2018-01-04T01:11:11.703Z,0
2018-01-04T01:12:21.412Z,0
2018-01-04T01:13:30.855Z,0
2018-01-04T01:14:40.576Z,0
2018-01-04T01:15:50.552Z,0
2018-01-04T01:17:00.533Z,0
2018-01-04T01:18:10.577Z,0
2018-01-04T01:19:20.567Z,0
2018-01-04T01:20:30.279Z,0
2018-01-04T01:21:39.732Z,0
2018-01-04T01:22:49.454Z,0
2018-01-04T01:23:59.161Z,0
2018-01-04T01:25:09.134Z,0
2018-01-04T01:26:19.115Z,0
2018-01-04T01:27:29.095Z,0
2018-01-04T01:28:39.098Z,0
2018-01-04T01:29:49.115Z,0
2018-01-04T01:30:58.816Z,0
2018-01-04T01:32:08.782Z,0
2018-01-04T01:33:18.812Z,0
2018-01-04T01:34:28.780Z,0
2018-01-04T01:35:38.482Z,0
2018-01-04T01:36:47.697Z,0
2018-01-04T01:37:57.416Z,0
2018-01-04T01:39:07.375Z,0
2018-01-04T01:40:17.338Z,0
2018-01-04T01:41:27.307Z,0
2018-01-04T01:42:37.008Z,0
2018-01-04T01:43:47.610Z,0
2018-01-04T01:45:29.398Z,0
2018-01-04T01:46:39.439Z,0
2018-01-04T01:48:02.151Z,0
2018-01-04T01:49:11.872Z,0
2018-01-04T01:50:24.362Z,0
2018-01-04T01:51:34.057Z,0
2018-01-04T01:53:15.592Z,0
2018-01-04T01:54:25.042Z,0
2018-01-04T01:55:34.846Z,0
2018-01-04T01:56:44.548Z,0
2018-01-04T01:57:54.261Z,0
2018-01-04T01:59:04.162Z,0
2018-01-04T02:00:14.141Z,0
2018-01-04T02:01:24.127Z,0
2018-01-04T02:04:15.649Z,0
2018-01-04T02:05:57.449Z,0
2018-01-04T02:07:07.405Z,0
2018-01-04T02:08:17.367Z,0
2018-01-04T02:09:27.371Z,0
2018-01-04T02:10:37.325Z,0
2018-01-04T02:11:47.028Z,0
2018-01-04T02:12:56.749Z,0
2018-01-04T02:14:06.722Z,0
2018-01-04T02:15:16.685Z,0
2018-01-04T02:16:26.385Z,0
2018-01-04T02:17:36.362Z,0
2018-01-04T02:18:46.085Z,0
2018-01-04T02:19:56.064Z,0
2018-01-04T02:21:05.766Z,0
2018-01-04T02:22:15.458Z,0
2018-01-04T02:23:24.909Z,0
2018-01-04T02:24:34.870Z,0
2018-01-04T02:25:44.845Z,0
2018-01-04T02:26:54.813Z,0
2018-01-04T02:28:04.783Z,0
2018-01-04T02:29:14.746Z,0
2018-01-04T02:30:24.494Z,0
2018-01-04T02:31:34.434Z,0
2018-01-04T02:32:43.911Z,0
2018-01-04T02:33:53.886Z,0
2018-01-04T02:35:03.352Z,0
2018-01-04T02:36:12.802Z,0
2018-01-04T02:37:22.765Z,0
2018-01-04T02:38:33.609Z,0
2018-01-04T02:39:43.042Z,0
2018-01-04T02:40:52.753Z,0
2018-01-04T02:42:02.722Z,0
2018-01-04T02:43:12.425Z,0
2018-01-04T02:44:22.389Z,0
2018-01-04T02:45:32.352Z,0
2018-01-04T02:46:42.364Z,0
2018-01-04T02:47:51.577Z,0
2018-01-04T02:49:01.592Z,0
2018-01-04T02:50:11.326Z,0
2018-01-04T02:51:21.291Z,0
2018-01-04T02:52:31.002Z,0
2018-01-04T02:53:40.973Z,0
2018-01-04T02:54:50.691Z,0
2018-01-04T02:56:00.405Z,0
2018-01-04T02:57:09.987Z,0
2018-01-04T02:58:20.059Z,0
2018-01-04T02:59:30.086Z,0
2018-01-04T03:01:11.968Z,0
2018-01-04T03:02:53.568Z,0
2018-01-04T03:04:35.188Z,0
2018-01-04T03:05:45.187Z,0
2018-01-04T03:06:54.933Z,0
2018-01-04T03:08:04.658Z,0
2018-01-04T03:09:14.610Z,0
2018-01-04T03:10:56.146Z,0
2018-01-04T03:12:06.108Z,0
2018-01-04T03:13:47.913Z,0
2018-01-04T03:14:57.897Z,0
2018-01-04T03:16:07.945Z,0
2018-01-04T03:17:17.956Z,0
2018-01-04T03:18:27.937Z,0
2018-01-04T03:19:37.922Z,0
2018-01-04T03:20:47.381Z,0
2018-01-04T03:21:57.112Z,0
2018-01-04T03:23:07.073Z,0
2018-01-04T03:24:17.038Z,0
2018-01-04T03:25:26.483Z,0
2018-01-04T03:26:36.195Z,0
2018-01-04T03:27:45.896Z,0
2018-01-04T03:28:55.868Z,0
2018-01-04T03:30:05.847Z,0
2018-01-04T03:31:15.580Z,0
2018-01-04T03:32:25.592Z,0
2018-01-04T03:33:35.305Z,0
2018-01-04T03:34:45.263Z,0
2018-01-04T03:35:54.704Z,0
2018-01-04T03:37:04.669Z,0
2018-01-04T03:38:14.637Z,0
2018-01-04T03:39:24.595Z,0
2018-01-04T03:40:33.774Z,0
2018-01-04T03:41:43.735Z,0
2018-01-04T03:42:53.174Z,0
2018-01-04T03:44:02.881Z,0
2018-01-04T03:45:12.837Z,0
2018-01-04T03:46:22.519Z,0
2018-01-04T03:47:32.472Z,0
2018-01-04T03:48:42.159Z,0
2018-01-04T03:49:51.895Z,0
2018-01-04T03:51:01.865Z,0
2018-01-04T03:52:11.577Z,0
2018-01-04T03:53:21.283Z,0
2018-01-04T03:54:31.241Z,0
2018-01-04T03:55:40.698Z,0
2018-01-04T03:56:50.678Z,0
2018-01-04T03:58:00.635Z,0
2018-01-04T03:59:10.591Z,0
2018-01-04T04:00:20.551Z,0
2018-01-04T04:01:30.515Z,0
2018-01-04T04:02:40.224Z,0
2018-01-04T04:03:50.188Z,0
2018-01-04T04:05:00.146Z,0
2018-01-04T04:06:10.117Z,0
2018-01-04T04:07:19.825Z,0
2018-01-04T04:08:29.531Z,0
2018-01-04T04:09:39.229Z,0
2018-01-04T04:10:49.192Z,0
2018-01-04T04:11:59.158Z,0
2018-01-04T04:13:08.874Z,0
2018-01-04T04:14:18.577Z,0
2018-01-04T04:15:28.020Z,0
2018-01-04T04:16:37.469Z,0
2018-01-04T04:17:47.445Z,0
2018-01-04T04:18:57.169Z,0
2018-01-04T04:20:07.143Z,0
2018-01-04T04:21:17.107Z,0
2018-01-04T04:22:27.072Z,0
2018-01-04T04:23:37.014Z,0
2018-01-04T04:24:46.964Z,0
2018-01-04T04:25:56.921Z,0
2018-01-04T04:27:06.883Z,0
2018-01-04T04:28:16.586Z,0
2018-01-04T04:29:26.560Z,0
2018-01-04T04:30:36.267Z,0
2018-01-04T04:31:46.226Z,0
2018-01-04T04:32:55.934Z,0
2018-01-04T04:34:05.884Z,0
2018-01-04T04:35:15.859Z,0
2018-01-04T04:36:25.827Z,0
2018-01-04T04:37:35.792Z,0
2018-01-04T04:38:45.775Z,0
2018-01-04T04:39:55.786Z,0
2018-01-04T04:41:05.514Z,0
2018-01-04T04:42:15.488Z,0
2018-01-04T04:43:25.476Z,0
2018-01-04T04:44:34.932Z,0
2018-01-04T04:45:44.916Z,0
2018-01-04T04:46:54.628Z,0
2018-01-04T04:48:04.330Z,0
2018-01-04T04:49:13.772Z,0
2018-01-04T04:51:27.148Z,0
2018-01-04T04:53:08.975Z,0
2018-01-04T04:54:18.996Z,0
2018-01-04T04:55:28.963Z,0
2018-01-04T04:56:38.685Z,0
2018-01-04T04:57:48.672Z,0
2018-01-04T04:59:30.481Z,0
2018-01-04T05:00:40.199Z,0
2018-01-04T05:01:50.175Z,0
2018-01-04T05:03:31.727Z,0
2018-01-04T05:04:41.761Z,0
2018-01-04T05:05:51.716Z,0
2018-01-04T05:07:01.709Z,0
2018-01-04T05:08:11.668Z,0
2018-01-04T05:09:21.384Z,0
2018-01-04T05:10:31.085Z,0
2018-01-04T05:11:41.043Z,0
2018-01-04T05:12:50.740Z,0
2018-01-04T05:14:00.187Z,0
2018-01-04T05:15:09.897Z,0
2018-01-04T05:16:19.882Z,0
2018-01-04T05:17:29.897Z,0
2018-01-04T05:18:39.862Z,0
2018-01-04T05:19:49.851Z,0
2018-01-04T05:20:59.575Z,0
2018-01-04T05:22:09.280Z,0
2018-01-04T05:23:19.550Z,0
2018-01-04T05:24:29.267Z,0
2018-01-04T05:25:39.256Z,0
2018-01-04T05:26:48.966Z,0
2018-01-04T05:27:58.955Z,0
2018-01-04T05:29:08.927Z,0
2018-01-04T05:30:18.667Z,0
2018-01-04T05:31:28.430Z,0
2018-01-04T05:32:38.401Z,0
2018-01-04T05:33:47.835Z,0
2018-01-04T05:34:57.538Z,0
2018-01-04T05:36:06.990Z,0
2018-01-04T05:37:16.961Z,0
2018-01-04T05:38:58.795Z,0
2018-01-04T05:40:08.509Z,0
2018-01-04T05:41:17.697Z,0
2018-01-04T05:42:27.658Z,0
2018-01-04T05:43:37.386Z,0
2018-01-04T05:44:47.589Z,0
2018-01-04T05:45:57.821Z,0
2018-01-04T05:47:07.529Z,0
2018-01-04T05:48:17.487Z,0
2018-01-04T05:49:27.189Z,0
2018-01-04T05:50:37.183Z,0
2018-01-04T05:51:46.917Z,0
2018-01-04T05:52:56.643Z,0
2018-01-04T05:54:06.361Z,0
2018-01-04T05:55:16.087Z,0
2018-01-04T05:56:25.811Z,0
2018-01-04T05:57:35.801Z,0
2018-01-04T05:58:45.781Z,0
2018-01-04T05:59:55.545Z,0
2018-01-04T06:01:05.010Z,0
2018-01-04T06:02:14.969Z,0
2018-01-04T06:03:24.688Z,0
2018-01-04T06:04:34.671Z,0
2018-01-04T06:05:44.634Z,0
2018-01-04T06:06:54.617Z,0
2018-01-04T06:08:04.576Z,0
2018-01-04T06:09:14.544Z,0
2018-01-04T06:10:24.518Z,0
2018-01-04T06:11:34.505Z,0
2018-01-04T06:12:44.476Z,0
2018-01-04T06:13:54.469Z,0
2018-01-04T06:15:03.933Z,0
2018-01-04T06:16:13.926Z,0
2018-01-04T06:17:23.891Z,0
2018-01-04T06:18:52.806Z,0
2018-01-04T06:20:34.358Z,0
2018-01-04T06:22:16.154Z,0
2018-01-04T06:23:26.135Z,0
2018-01-04T06:24:35.867Z,0
2018-01-04T06:25:45.850Z,0
2018-01-04T06:26:55.839Z,0
2018-01-04T06:28:05.811Z,0
2018-01-04T06:29:16.713Z,0
2018-01-04T06:31:30.341Z,0
2018-01-04T06:32:40.313Z,0
2018-01-04T06:33:50.274Z,0
2018-01-04T06:35:00.239Z,4
2018-01-04T06:36:09.988Z,4
2018-01-04T06:37:22.996Z,4
2018-01-04T06:39:04.799Z,4
2018-01-04T06:40:46.605Z,4
2018-01-04T06:41:56.372Z,4
2018-01-04T06:43:05.852Z,0
2018-01-04T06:44:15.814Z,4
2018-01-04T06:45:25.801Z,4
2018-01-04T06:47:07.666Z,8
2018-01-04T06:48:17.636Z,8
2018-01-04T06:49:27.095Z,8
2018-01-04T06:50:36.557Z,8
2018-01-04T06:51:46.521Z,12
2018-01-04T06:52:56.492Z,16
2018-01-04T06:54:06.489Z,16
2018-01-04T06:55:16.208Z,16
2018-01-04T06:56:25.931Z,16
2018-01-04T06:57:35.640Z,16
2018-01-04T06:58:45.609Z,24
2018-01-04T06:59:55.327Z,24
2018-01-04T07:01:05.324Z,28
2018-01-04T07:02:15.363Z,36
2018-01-04T07:03:25.089Z,48
2018-01-04T07:04:35.067Z,60
2018-01-04T07:05:45.060Z,80
2018-01-04T07:06:54.781Z,96
2018-01-04T07:08:04.499Z,88
2018-01-04T07:09:14.478Z,88
2018-01-04T07:10:24.477Z,92
2018-01-04T07:11:34.576Z,104
2018-01-04T07:12:44.587Z,112
2018-01-04T07:13:54.591Z,124
2018-01-04T07:15:04.656Z,124
2018-01-04T07:16:14.218Z,128
2018-01-04T07:17:24.245Z,164
2018-01-04T07:18:34.332Z,144
2018-01-04T07:19:44.187Z,120
2018-01-04T07:20:54.029Z,168
2018-01-04T07:22:03.641Z,216
2018-01-04T07:23:13.741Z,272
2018-01-04T07:24:23.796Z,248
2018-01-04T07:25:33.830Z,276
2018-01-04T07:26:43.852Z,264
2018-01-04T07:27:53.876Z,264
2018-01-04T07:29:03.628Z,292
2018-01-04T07:30:13.496Z,316
2018-01-04T07:31:23.258Z,304
2018-01-04T07:32:33.017Z,220
2018-01-04T07:33:42.793Z,244
2018-01-04T07:34:53.123Z,252
2018-01-04T07:36:03.502Z,220
2018-01-04T07:37:13.497Z,260
2018-01-04T07:38:23.233Z,264
2018-01-04T07:39:36.218Z,312
2018-01-04T07:40:47.263Z,376
2018-01-04T07:41:57.272Z,372
2018-01-04T07:43:07.243Z,344
2018-01-04T07:44:17.236Z,300
2018-01-04T07:45:27.241Z,312
2018-01-04T07:46:36.975Z,256
2018-01-04T07:47:46.980Z,328
2018-01-04T07:48:57.009Z,440
2018-01-04T07:50:07.013Z,404
2018-01-04T07:51:17.014Z,284
2018-01-04T07:52:26.758Z,316
2018-01-04T07:53:36.780Z,336
2018-01-04T07:54:46.250Z,320
2018-01-04T07:55:56.250Z,412
2018-01-04T07:57:06.256Z,408
2018-01-04T07:58:16.263Z,372
2018-01-04T07:59:26.252Z,380
2018-01-04T08:00:36.259Z,472
2018-01-04T08:01:45.735Z,528
2018-01-04T08:02:55.499Z,564
2018-01-04T08:04:05.522Z,732
2018-01-04T08:05:15.286Z,844
2018-01-04T08:06:25.032Z,972
2018-01-04T08:07:35.068Z,772
2018-01-04T08:08:44.831Z,804
2018-01-04T08:09:54.875Z,764
2018-01-04T08:11:04.934Z,860
2018-01-04T08:12:14.927Z,852
2018-01-04T08:13:24.917Z,908
2018-01-04T08:14:34.909Z,868
2018-01-04T08:15:44.926Z,988
2018-01-04T08:16:54.663Z,1236
2018-01-04T08:18:04.450Z,1368
2018-01-04T08:19:14.446Z,1436
2018-01-04T08:20:24.441Z,1912
2018-01-04T08:21:34.178Z,2104
2018-01-04T08:22:44.256Z,1964
2018-01-04T08:23:54.288Z,1504
2018-01-04T08:25:04.316Z,1304
2018-01-04T08:26:14.061Z,1404
2018-01-04T08:27:24.059Z,1996
2018-01-04T08:28:33.799Z,2348
2018-01-04T08:29:43.528Z,2292
2018-01-04T08:30:53.249Z,1952
2018-01-04T08:32:03.248Z,2016
2018-01-04T08:33:12.803Z,2020
2018-01-04T08:34:22.792Z,1712
2018-01-04T08:35:32.829Z,1684
2018-01-04T08:36:42.601Z,2016
2018-01-04T08:37:52.578Z,2324
2018-01-04T08:39:02.285Z,2440
2018-01-04T08:40:12.054Z,2528
2018-01-04T08:41:22.049Z,2232
2018-01-04T08:42:31.771Z,1848
2018-01-04T08:43:41.760Z,1804
2018-01-04T08:44:51.483Z,1196
2018-01-04T08:46:01.182Z,1196
2018-01-04T08:47:10.902Z,1488
2018-01-04T08:48:20.901Z,1580
2018-01-04T08:49:30.610Z,1300
2018-01-04T08:50:40.627Z,1412
2018-01-04T08:51:50.364Z,2176
2018-01-04T08:53:00.405Z,2412
2018-01-04T08:54:10.416Z,2848
2018-01-04T08:55:20.421Z,3292
2018-01-04T08:56:30.390Z,3372
2018-01-04T08:57:39.905Z,3568
2018-01-04T08:58:49.623Z,3844
2018-01-04T08:59:59.615Z,4244
2018-01-04T09:01:09.592Z,4468
2018-01-04T09:02:19.344Z,5020
2018-01-04T09:03:29.338Z,5088
2018-01-04T09:04:39.060Z,4968
2018-01-04T09:05:48.802Z,5804
2018-01-04T09:06:58.257Z,7628
2018-01-04T09:08:08.203Z,7764
2018-01-04T09:09:18.185Z,6808
2018-01-04T09:10:28.181Z,5624
2018-01-04T09:11:37.912Z,4524
2018-01-04T09:12:47.892Z,4920
2018-01-04T09:13:57.860Z,5036
2018-01-04T09:15:07.622Z,5856
2018-01-04T09:16:17.650Z,6700
2018-01-04T09:17:27.619Z,6976
2018-01-04T09:18:37.452Z,7192
2018-01-04T09:19:47.442Z,6452
2018-01-04T09:20:57.437Z,5808
2018-01-04T09:22:07.410Z,5536
2018-01-04T09:23:16.865Z,5256
2018-01-04T09:24:26.853Z,5592
2018-01-04T09:25:36.059Z,5468
2018-01-04T09:26:45.262Z,5752
2018-01-04T09:27:55.033Z,4416
2018-01-04T09:29:04.802Z,4044
2018-01-04T09:30:14.504Z,3536
2018-01-04T09:31:24.579Z,3400
2018-01-04T09:32:34.325Z,4200
2018-01-04T09:33:44.386Z,4504
2018-01-04T09:34:54.248Z,3960
2018-01-04T09:36:04.184Z,3060
2018-01-04T09:37:14.185Z,2752
2018-01-04T09:38:24.235Z,3020
2018-01-04T09:39:34.938Z,2876
2018-01-04T09:40:45.086Z,2908
2018-01-04T09:41:54.930Z,3172
2018-01-04T09:43:04.810Z,3004
2018-01-04T09:44:14.656Z,3468
2018-01-04T09:45:24.330Z,3308
2018-01-04T09:46:34.283Z,3552
2018-01-04T09:47:49.342Z,2880
2018-01-04T09:49:00.972Z,2324
2018-01-04T09:50:12.535Z,2224
2018-01-04T09:51:23.535Z,2324
2018-01-04T09:52:34.575Z,3024
2018-01-04T09:53:44.388Z,4944
2018-01-04T09:54:54.342Z,6100
2018-01-04T09:56:04.382Z,5924
2018-01-04T09:57:14.087Z,6456
2018-01-04T09:58:24.038Z,7884
2018-01-04T09:59:33.746Z,8328
2018-01-04T10:00:43.703Z,6036
2018-01-04T10:01:53.664Z,5608
2018-01-04T10:03:04.967Z,4476
2018-01-04T10:04:18.053Z,5024
2018-01-04T10:06:10.803Z,4608
2018-01-04T10:07:20.814Z,4152
2018-01-04T10:08:30.543Z,4268
2018-01-04T10:09:40.564Z,4988
2018-01-04T10:10:50.528Z,4860
2018-01-04T10:12:00.690Z,5248
2018-01-04T10:13:10.156Z,4868
2018-01-04T10:14:19.857Z,4288
2018-01-04T10:15:29.557Z,4892
2018-01-04T10:16:39.261Z,6392
2018-01-04T10:17:49.261Z,6076
2018-01-04T10:18:59.260Z,6116
2018-01-04T10:20:09.270Z,6584
2018-01-04T10:21:18.977Z,7960
2018-01-04T10:22:29.019Z,8052
2018-01-04T10:23:38.706Z,8640
2018-01-04T10:24:48.658Z,7316
2018-01-04T10:25:58.629Z,7600
2018-01-04T10:27:08.095Z,8364
2018-01-04T10:28:18.124Z,6700
2018-01-04T10:29:27.839Z,5248
2018-01-04T10:30:37.817Z,4980
2018-01-04T10:31:47.789Z,5544
2018-01-04T10:32:57.259Z,7000
2018-01-04T10:34:07.002Z,9332
2018-01-04T10:35:16.976Z,8796
2018-01-04T10:36:26.737Z,8264
2018-01-04T10:37:36.735Z,8412
2018-01-04T10:38:46.453Z,7852
2018-01-04T10:39:56.464Z,7864
2018-01-04T10:41:06.424Z,7896
2018-01-04T10:42:16.179Z,7972
2018-01-04T10:43:26.178Z,7620
2018-01-04T10:44:35.882Z,6856
2018-01-04T10:45:45.593Z,7264
2018-01-04T10:46:55.604Z,7576
2018-01-04T10:48:05.606Z,7400
2018-01-04T10:49:15.333Z,7568
2018-01-04T10:50:25.311Z,7452
2018-01-04T10:51:34.754Z,7188
2018-01-04T10:52:44.736Z,5764
2018-01-04T10:53:54.714Z,5632
2018-01-04T10:55:04.692Z,5480
2018-01-04T10:56:14.388Z,5716
2018-01-04T10:57:24.375Z,5940
2018-01-04T10:58:34.102Z,5432
2018-01-04T10:59:44.075Z,5748
2018-01-04T11:00:54.055Z,5684
2018-01-04T11:02:04.026Z,5736
2018-01-04T11:03:14.209Z,6520
2018-01-04T11:04:23.934Z,6252
2018-01-04T11:05:33.712Z,5712
2018-01-04T11:06:43.413Z,6012
2018-01-04T11:07:53.386Z,4216
2018-01-04T11:09:02.833Z,4472
2018-01-04T11:10:12.795Z,5220
2018-01-04T11:11:22.748Z,5412
2018-01-04T11:12:32.709Z,5540
2018-01-04T11:13:42.414Z,5016
2018-01-04T11:14:52.111Z,4456
2018-01-04T11:16:01.815Z,4628
2018-01-04T11:17:11.524Z,4840
2018-01-04T11:18:21.234Z,4488
2018-01-04T11:19:30.926Z,4676
2018-01-04T11:20:40.877Z,4764
2018-01-04T11:21:50.313Z,4620
2018-01-04T11:23:00.012Z,4684
2018-01-04T11:24:09.976Z,4404
2018-01-04T11:25:19.945Z,3556
2018-01-04T11:26:29.907Z,3400
2018-01-04T11:27:39.870Z,3140
2018-01-04T11:28:49.865Z,2620
2018-01-04T11:29:59.820Z,2792
2018-01-04T11:31:09.263Z,2920
2018-01-04T11:32:19.459Z,3496
2018-01-04T11:33:29.448Z,3356
2018-01-04T11:34:38.891Z,3548
2018-01-04T11:35:48.605Z,3572
2018-01-04T11:36:58.572Z,3648
2018-01-04T11:38:08.525Z,3800
2018-01-04T11:39:18.497Z,3852
2018-01-04T11:40:28.724Z,3912
2018-01-04T11:41:38.415Z,2772
2018-01-04T11:42:48.113Z,2640
2018-01-04T11:43:58.340Z,3128
2018-01-04T11:45:08.542Z,3272
2018-01-04T11:46:18.503Z,3488
2018-01-04T11:47:28.214Z,4192
2018-01-04T11:48:37.931Z,3572
2018-01-04T11:49:47.664Z,4040
2018-01-04T11:50:57.397Z,4936
2018-01-04T11:52:06.849Z,3952
2018-01-04T11:53:16.581Z,4400
2018-01-04T11:54:26.658Z,5580
2018-01-04T11:55:36.648Z,6852
2018-01-04T11:56:46.488Z,8704
2018-01-04T11:57:56.464Z,9120
2018-01-04T11:59:06.460Z,6884
2018-01-04T12:00:15.958Z,6616
2018-01-04T12:01:25.980Z,6644
2018-01-04T12:02:35.946Z,8580
2018-01-04T12:03:45.757Z,8988
2018-01-04T12:04:55.960Z,7320
2018-01-04T12:06:05.744Z,8240
2018-01-04T12:07:15.715Z,6596
2018-01-04T12:08:25.730Z,6424
2018-01-04T12:09:35.811Z,5368
2018-01-04T12:10:45.843Z,4344
2018-01-04T12:11:55.835Z,3708
2018-01-04T12:13:05.823Z,4512
2018-01-04T12:14:15.280Z,5224
2018-01-04T12:15:25.001Z,4944
2018-01-04T12:16:34.978Z,4248
2018-01-04T12:17:45.095Z,3820
2018-01-04T12:18:55.093Z,3604
2018-01-04T12:20:04.826Z,3860
2018-01-04T12:21:14.830Z,6276
2018-01-04T12:22:24.826Z,8168
2018-01-04T12:23:34.306Z,5788
2018-01-04T12:24:44.272Z,4548
2018-01-04T12:25:53.725Z,4060
2018-01-04T12:27:03.707Z,4420
2018-01-04T12:28:13.708Z,4964
2018-01-04T12:29:23.445Z,5348
2018-01-04T12:30:33.403Z,5112
2018-01-04T12:31:42.764Z,4120
2018-01-04T12:32:52.750Z,3572
2018-01-04T12:34:02.746Z,3032
2018-01-04T12:35:12.724Z,3216
2018-01-04T12:36:22.438Z,3472
2018-01-04T12:37:32.430Z,3732
2018-01-04T12:38:42.415Z,3344
2018-01-04T12:39:51.880Z,3024
2018-01-04T12:41:01.594Z,3204
2018-01-04T12:42:11.321Z,3444
2018-01-04T12:43:21.304Z,3164
2018-01-04T12:44:31.281Z,2708
2018-01-04T12:45:41.253Z,2684
2018-01-04T12:46:51.242Z,2580
2018-01-04T12:48:01.201Z,3080
2018-01-04T12:49:11.178Z,3564
2018-01-04T12:50:21.256Z,3624
2018-01-04T12:51:31.236Z,3996
2018-01-04T12:52:41.240Z,3376
2018-01-04T12:53:51.213Z,2920
2018-01-04T12:55:01.179Z,3404
2018-01-04T12:56:11.172Z,3428
2018-01-04T12:57:20.946Z,3212
2018-01-04T12:58:30.919Z,2108
2018-01-04T12:59:40.617Z,2056
2018-01-04T13:00:50.584Z,2288
2018-01-04T13:02:00.283Z,2120
2018-01-04T13:03:10.007Z,2324
2018-01-04T13:04:19.706Z,3296
2018-01-04T13:05:29.679Z,4588
2018-01-04T13:06:39.439Z,5128
2018-01-04T13:07:49.221Z,5476
2018-01-04T13:08:59.207Z,5184
2018-01-04T13:10:09.170Z,4504
2018-01-04T13:11:19.174Z,3580
2018-01-04T13:12:29.152Z,3172
2018-01-04T13:13:38.867Z,3304
2018-01-04T13:14:48.831Z,3692
2018-01-04T13:15:58.857Z,4416
2018-01-04T13:17:08.840Z,4792
2018-01-04T13:18:18.834Z,4860
2018-01-04T13:19:28.798Z,5052
2018-01-04T13:20:38.539Z,5052
2018-01-04T13:21:48.256Z,4784
2018-01-04T13:22:57.978Z,4376
2018-01-04T13:24:07.681Z,4048
2018-01-04T13:25:17.730Z,3820
2018-01-04T13:26:27.713Z,3452
2018-01-04T13:27:37.490Z,3112
2018-01-04T13:28:47.459Z,3052
2018-01-04T13:29:57.417Z,3172
2018-01-04T13:31:07.400Z,3472
2018-01-04T13:32:17.112Z,3632
2018-01-04T13:33:27.112Z,3668
2018-01-04T13:34:37.166Z,3444
2018-01-04T13:35:47.211Z,3416
2018-01-04T13:36:57.204Z,3236
2018-01-04T13:38:07.202Z,3324
2018-01-04T13:39:17.161Z,3744
2018-01-04T13:40:27.168Z,3940
2018-01-04T13:41:36.882Z,4160
2018-01-04T13:42:46.843Z,4968
2018-01-04T13:43:56.816Z,10844
2018-01-04T13:45:06.788Z,6728
2018-01-04T13:46:16.750Z,7140
2018-01-04T13:47:26.711Z,10476
2018-01-04T13:48:36.421Z,6416
2018-01-04T13:49:46.130Z,6116
2018-01-04T13:50:56.088Z,6468
2018-01-04T13:52:06.043Z,7372
2018-01-04T13:53:16.012Z,8524
2018-01-04T13:54:25.977Z,9376
2018-01-04T13:55:35.933Z,10400
2018-01-04T13:56:45.890Z,10612
2018-01-04T13:57:55.846Z,10280
2018-01-04T13:59:05.803Z,9192
2018-01-04T14:00:15.816Z,8008
2018-01-04T14:01:25.794Z,6712
2018-01-04T14:02:35.747Z,6352
2018-01-04T14:03:45.719Z,5736
2018-01-04T14:04:55.681Z,5336
2018-01-04T14:06:05.629Z,4928
2018-01-04T14:07:15.337Z,4544
2018-01-04T14:08:25.027Z,4196
2018-01-04T14:09:35.007Z,4116
2018-01-04T14:10:44.987Z,4084
2018-01-04T14:11:54.971Z,3884
2018-01-04T14:13:04.676Z,3652
2018-01-04T14:14:14.647Z,3456
2018-01-04T14:15:24.619Z,3400
2018-01-04T14:16:34.316Z,3308
2018-01-04T14:17:44.269Z,3264
2018-01-04T14:18:54.237Z,3176
2018-01-04T14:20:04.202Z,3132
2018-01-04T14:21:14.172Z,3088
2018-01-04T14:22:23.605Z,3216
2018-01-04T14:23:33.303Z,3492
2018-01-04T14:24:43.013Z,3340
2018-01-04T14:25:52.968Z,3028
2018-01-04T14:27:02.930Z,3004
2018-01-04T14:28:12.629Z,2948
2018-01-04T14:29:22.329Z,2984
2018-01-04T14:30:32.312Z,2948
2018-01-04T14:31:42.293Z,2872
2018-01-04T14:32:52.276Z,2828
2018-01-04T14:34:01.743Z,2608
2018-01-04T14:35:11.716Z,2300
2018-01-04T14:36:21.422Z,2116
2018-01-04T14:37:31.180Z,1952
2018-01-04T14:38:40.883Z,1800
2018-01-04T14:39:50.842Z,1664
2018-01-04T14:41:00.800Z,1568
2018-01-04T14:42:10.764Z,1416
2018-01-04T14:43:20.734Z,1300
2018-01-04T14:44:30.713Z,1232
2018-01-04T14:45:40.469Z,1184
2018-01-04T14:46:49.653Z,1164
2018-01-04T14:47:59.606Z,1164
2018-01-04T14:49:09.040Z,1136
2018-01-04T14:50:18.752Z,1096
2018-01-04T14:51:28.712Z,1056
2018-01-04T14:52:38.695Z,1000
2018-01-04T14:53:48.672Z,912
2018-01-04T14:54:58.626Z,832
2018-01-04T14:56:08.583Z,776
2018-01-04T14:57:18.541Z,732
2018-01-04T14:58:28.233Z,700
2018-01-04T14:59:38.200Z,676
2018-01-04T15:00:48.172Z,652
2018-01-04T15:01:58.135Z,616
2018-01-04T15:03:08.105Z,584
2018-01-04T15:04:18.079Z,532
2018-01-04T15:05:27.794Z,476
2018-01-04T15:06:37.490Z,416
2018-01-04T15:07:47.254Z,368
2018-01-04T15:08:57.209Z,320
2018-01-04T15:10:07.187Z,280
2018-01-04T15:11:17.169Z,244
2018-01-04T15:12:27.322Z,216
2018-01-04T15:13:38.602Z,196
2018-01-04T15:14:49.769Z,172
2018-01-04T15:16:09.523Z,140
2018-01-04T15:17:19.736Z,116
2018-01-04T15:18:31.235Z,96
2018-01-04T15:19:41.815Z,84
2018-01-04T15:20:53.017Z,76
2018-01-04T15:22:04.163Z,60
2018-01-04T15:23:14.165Z,48
2018-01-04T15:24:24.152Z,36
2018-01-04T15:25:34.111Z,28
2018-01-04T15:26:44.162Z,20
2018-01-04T15:27:54.172Z,16
2018-01-04T15:29:04.145Z,12
2018-01-04T15:30:14.122Z,12
2018-01-04T15:31:24.097Z,8
2018-01-04T15:32:34.310Z,4
2018-01-04T15:33:44.300Z,8
2018-01-04T15:34:53.764Z,4
2018-01-04T15:36:03.221Z,8
2018-01-04T15:37:12.937Z,8
2018-01-04T15:38:22.900Z,8
2018-01-04T15:39:32.875Z,8
2018-01-04T15:40:42.884Z,8
2018-01-04T15:41:52.867Z,4
2018-01-04T15:43:02.592Z,4
2018-01-04T15:44:12.305Z,0
2018-01-04T15:45:21.754Z,0
2018-01-04T15:46:31.741Z,0
2018-01-04T15:47:41.718Z,0
2018-01-04T15:48:51.437Z,0
2018-01-04T15:50:01.424Z,0
2018-01-04T15:51:11.405Z,0
2018-01-04T15:52:20.915Z,0
2018-01-04T15:53:30.671Z,0
2018-01-04T15:54:40.413Z,0
2018-01-04T15:55:50.430Z,0
2018-01-04T15:56:59.657Z,0
2018-01-04T15:58:09.115Z,0
2018-01-04T15:59:19.167Z,0
2018-01-04T16:00:28.371Z,0
2018-01-04T16:01:37.845Z,0
2018-01-04T16:02:47.822Z,0
2018-01-04T16:03:57.279Z,0
2018-01-04T16:05:07.022Z,0
2018-01-04T16:06:16.741Z,0
2018-01-04T16:07:26.717Z,0
2018-01-04T16:08:36.709Z,0
2018-01-04T16:09:46.666Z,0
2018-01-04T16:10:56.122Z,0
2018-01-04T16:12:05.327Z,0
2018-01-04T16:13:15.294Z,0
2018-01-04T16:14:24.751Z,0
2018-01-04T16:15:34.454Z,0
2018-01-04T16:16:44.413Z,0
2018-01-04T16:17:54.110Z,0
2018-01-04T16:19:03.571Z,0
2018-01-04T16:20:13.274Z,0
2018-01-04T16:21:22.976Z,0
2018-01-04T16:22:32.476Z,0
2018-01-04T16:23:42.435Z,0
2018-01-04T16:24:52.399Z,0
2018-01-04T16:26:02.363Z,0
2018-01-04T16:27:12.116Z,0
2018-01-04T16:28:22.161Z,0
2018-01-04T16:29:32.123Z,0
2018-01-04T16:30:42.074Z,0
2018-01-04T16:31:51.772Z,0
2018-01-04T16:33:01.731Z,0
2018-01-04T16:34:11.179Z,0
2018-01-04T16:35:20.923Z,0
2018-01-04T16:36:31.104Z,0
2018-01-04T16:37:41.072Z,0
2018-01-04T16:38:50.770Z,0
2018-01-04T16:40:00.720Z,0
2018-01-04T16:41:10.688Z,0
2018-01-04T16:42:20.680Z,0
2018-01-04T16:43:30.652Z,0